Time;durP1;ratioP1;P1;durP2;ratioP2;P2;SDS_P1;SDS_P2;PMS_P1;PMS_P2;Temp;Humidity;BMP_temperature;BMP_pressure;BME280_temperature;BME280_humidity;BME280_pressure;Samples;Min_cycle;Max_cycle;Signal;HPM_P1;HPM_P2
2021/03/14 00:05:28;;;;;;;1.50;1.40;;;9.90;99.90;;;;;;20618678;28;20927;-72
2021/03/14 00:15:32;;;;;;;0.40;0.30;;;9.60;99.90;;;;;;20643854;28;20446;-70
2021/03/14 00:25:42;;;;;;;1.50;1.23;;;9.30;99.90;;;;;;20618750;28;20203;-68
2021/03/14 00:35:46;;;;;;;0.67;0.63;;;9.30;99.90;;;;;;20630818;28;20775;-69
2021/03/14 00:45:49;;;;;;;0.73;0.73;;;9.50;99.90;;;;;;20616106;28;20298;-68
2021/03/14 00:56:08;;;;;;;1.47;1.33;;;8.70;99.90;;;;;;20618081;28;20235;-69
2021/03/14 01:06:11;;;;;;;0.20;0.20;;;9.00;99.90;;;;;;20618272;28;20618;-69
2021/03/14 01:16:15;;;;;;;0.97;0.80;;;8.80;99.90;;;;;;20616476;28;20219;-69
2021/03/14 01:26:27;;;;;;;0.60;0.37;;;9.00;99.90;;;;;;20615466;28;20273;-70
2021/03/14 01:36:30;;;;;;;0.87;0.70;;;9.30;99.90;;;;;;20630004;28;20288;-71
2021/03/14 01:46:33;;;;;;;2.93;1.10;;;9.80;99.90;;;;;;20651325;28;20191;-71
2021/03/14 01:56:50;;;;;;;3.97;1.23;;;10.20;99.90;;;;;;20662575;28;20572;-69
2021/03/14 02:06:52;;;;;;;0.23;0.23;;;10.20;99.90;;;;;;20615048;28;20657;-70
2021/03/14 02:16:58;;;;;;;0.20;0.20;;;10.10;99.90;;;;;;20608546;28;20233;-70
2021/03/14 02:27:13;;;;;;;0.50;0.30;;;9.80;99.90;;;;;;20608276;28;20660;-69
2021/03/14 02:37:17;;;;;;;13.93;0.83;;;10.10;99.90;;;;;;20610843;28;20227;-70
2021/03/14 02:47:21;;;;;;;4.10;1.53;;;10.00;99.90;;;;;;20606698;28;20253;-70
2021/03/14 02:57:36;;;;;;;0.40;0.40;;;10.10;99.90;;;;;;20609026;28;20306;-70
2021/03/14 03:07:41;;;;;;;1.23;1.23;;;10.00;99.90;;;;;;20610334;28;20219;-69
2021/03/14 03:17:45;;;;;;;0.20;0.20;;;9.80;99.90;;;;;;20615916;28;20681;-72
2021/03/14 03:27:59;;;;;;;0.20;0.20;;;9.70;99.90;;;;;;20622700;28;20464;-72
2021/03/14 03:38:03;;;;;;;0.67;0.67;;;9.60;99.90;;;;;;20622574;28;20971;-73
2021/03/14 03:48:14;;;;;;;0.20;0.20;;;9.70;99.90;;;;;;20620126;28;20676;-72
2021/03/14 03:58:24;;;;;;;0.57;0.57;;;9.70;99.90;;;;;;20618799;28;20231;-74
2021/03/14 04:08:31;;;;;;;0.67;0.67;;;9.70;99.90;;;;;;20620715;28;20203;-75
2021/03/14 04:18:36;;;;;;;0.63;0.50;;;9.70;99.90;;;;;;20617477;28;20819;-74
2021/03/14 04:28:47;;;;;;;0.40;0.40;;;9.80;99.90;;;;;;20618274;28;20690;-72
2021/03/14 04:38:51;;;;;;;1.13;0.60;;;9.80;99.90;;;;;;20634017;28;20231;-71
2021/03/14 04:48:55;;;;;;;0.20;0.20;;;9.60;99.90;;;;;;20618630;28;20525;-72
2021/03/14 05:09:22;;;;;;;0.60;0.40;;;9.40;99.90;;;;;;20471873;28;20351;-73
2021/03/14 05:19:25;;;;;;;0.30;0.30;;;9.30;99.90;;;;;;20456314;29;20244;-73
2021/03/14 05:29:34;;;;;;;0.20;0.10;;;9.40;99.90;;;;;;20455507;28;20208;-74
2021/03/14 05:39:37;;;;;;;0.20;0.10;;;9.20;99.90;;;;;;20452913;28;20228;-73
2021/03/14 05:49:40;;;;;;;0.20;0.20;;;9.10;99.90;;;;;;20453814;28;20773;-72
2021/03/14 05:59:59;;;;;;;0.30;0.30;;;9.20;99.90;;;;;;20453144;29;20445;-72
2021/03/14 06:10:04;;;;;;;0.50;0.20;;;9.20;99.90;;;;;;20450104;28;20219;-75
2021/03/14 06:20:09;;;;;;;0.53;0.53;;;9.10;99.90;;;;;;20466612;28;20238;-74
2021/03/14 06:30:19;;;;;;;0.23;0.23;;;9.20;99.90;;;;;;20449887;29;20200;-73
2021/03/14 06:40:21;;;;;;;1.37;0.37;;;10.20;99.90;;;;;;20466091;28;20252;-72
2021/03/14 06:50:39;;;;;;;0.20;0.20;;;10.00;99.90;;;;;;20457028;28;20560;-74
2021/03/14 07:00:42;;;;;;;0.20;0.17;;;9.80;99.90;;;;;;20463490;29;20236;-72
2021/03/14 07:10:46;;;;;;;0.20;0.20;;;10.20;99.90;;;;;;20466341;29;20197;-72
2021/03/14 07:20:49;;;;;;;1.17;0.60;;;10.40;99.90;;;;;;20465184;29;20315;-74
2021/03/14 07:31:03;;;;;;;0.60;0.60;;;10.70;99.90;;;;;;20462346;28;20283;-74
2021/03/14 07:41:07;;;;;;;0.20;0.20;;;11.00;99.90;;;;;;20464150;28;20424;-74
2021/03/14 07:51:12;;;;;;;1.37;1.03;;;11.60;99.90;;;;;;20475479;28;20189;-76
2021/03/14 08:01:31;;;;;;;0.30;0.30;;;11.90;99.90;;;;;;20454785;28;20233;-74
2021/03/14 08:11:35;;;;;;;0.20;0.20;;;12.10;99.90;;;;;;20384679;28;20260;-72
2021/03/14 08:21:40;;;;;;;1.43;0.87;;;12.50;99.90;;;;;;20451078;28;20217;-74
2021/03/14 08:31:50;;;;;;;1.90;0.47;;;13.30;99.90;;;;;;20464915;28;20204;-73
2021/03/14 08:41:57;;;;;;;0.40;0.40;;;13.50;99.90;;;;;;20459807;29;20348;-73
2021/03/14 08:52:00;;;;;;;0.20;0.20;;;13.30;99.90;;;;;;20459140;29;20204;-75
2021/03/14 09:02:10;;;;;;;0.20;0.20;;;13.70;99.90;;;;;;20458130;29;20773;-76
2021/03/14 09:12:17;;;;;;;0.20;0.20;;;13.70;99.90;;;;;;20455602;28;20213;-74
2021/03/14 09:22:22;;;;;;;4.83;1.53;;;14.10;99.90;;;;;;20443015;28;20220;-74
2021/03/14 09:32:37;;;;;;;0.90;0.70;;;14.60;99.90;;;;;;20411433;29;20205;-77
2021/03/14 09:42:44;;;;;;;0.70;0.63;;;15.60;99.90;;;;;;20413373;29;20283;-73
2021/03/14 09:52:48;;;;;;;0.20;0.10;;;16.10;99.90;;;;;;20413376;28;20209;-76
2021/03/14 10:02:54;;;;;;;0.20;0.20;;;16.60;99.90;;;;;;20378530;29;20237;-73
2021/03/14 10:12:58;;;;;;;0.20;0.10;;;15.70;99.90;;;;;;20447491;28;20220;-74
2021/03/14 10:23:04;;;;;;;0.27;0.27;;;16.60;99.90;;;;;;20422577;28;20219;-73
2021/03/14 10:33:18;;;;;;;0.30;0.30;;;16.80;99.90;;;;;;20441058;29;20238;-73
2021/03/14 10:43:23;;;;;;;0.63;0.40;;;17.20;99.90;;;;;;20433791;29;20242;-75
2021/03/14 10:53:27;;;;;;;0.20;0.20;;;17.60;99.90;;;;;;20438216;29;20479;-75
2021/03/14 11:03:40;;;;;;;0.97;0.40;;;18.00;99.90;;;;;;20442639;28;20244;-75
2021/03/14 11:13:44;;;;;;;1.30;0.70;;;19.30;99.90;;;;;;20435085;28;20252;-75
2021/03/14 11:23:47;;;;;;;0.30;0.20;;;18.70;99.90;;;;;;20422504;28;20202;-75
2021/03/14 11:34:04;;;;;;;1.03;0.83;;;18.40;99.90;;;;;;20444729;28;20244;-75
2021/03/14 11:44:07;;;;;;;0.20;0.10;;;19.00;99.90;;;;;;20453973;29;20212;-75
2021/03/14 11:54:16;;;;;;;0.90;0.43;;;18.50;99.90;;;;;;20472384;28;20283;-75
2021/03/14 12:04:24;;;;;;;1.17;0.73;;;17.50;99.90;;;;;;20458044;28;20323;-74
2021/03/14 12:14:31;;;;;;;0.57;0.57;;;17.30;99.90;;;;;;20446932;29;20225;-75
2021/03/14 12:24:33;;;;;;;0.67;0.40;;;17.90;99.90;;;;;;20442213;28;20205;-75
2021/03/14 12:34:46;;;;;;;2.30;0.93;;;19.30;99.90;;;;;;20450570;29;20584;-76
2021/03/14 12:44:48;;;;;;;3.50;0.70;;;21.40;99.90;;;;;;20458176;28;20205;-75
2021/03/14 12:54:52;;;;;;;0.53;0.47;;;20.90;99.90;;;;;;20450728;28;20238;-73
2021/03/14 13:05:09;;;;;;;0.90;0.20;;;21.50;99.90;;;;;;20401082;29;20256;-76
2021/03/14 13:15:13;;;;;;;2.00;1.37;;;19.50;99.90;;;;;;20449228;29;20236;-74
2021/03/14 13:25:16;;;;;;;3.07;1.07;;;18.90;99.90;;;;;;20435230;28;20197;-75
2021/03/14 13:35:31;;;;;;;0.20;0.20;;;17.60;99.90;;;;;;20454709;28;20327;-77
2021/03/14 13:45:34;;;;;;;0.30;0.30;;;18.50;99.90;;;;;;20440086;28;20571;-76
2021/03/14 13:55:38;;;;;;;0.50;0.33;;;17.50;99.90;;;;;;20437694;28;20296;-73
2021/03/14 14:05:55;;;;;;;0.20;0.20;;;16.90;99.90;;;;;;20405963;29;20221;-75
2021/03/14 14:16:00;;;;;;;1.03;0.63;;;16.60;99.90;;;;;;20462347;28;20249;-76
2021/03/14 14:26:03;;;;;;;0.20;0.10;;;16.10;99.90;;;;;;20416686;29;20205;-76
2021/03/14 14:36:17;;;;;;;2.30;0.20;;;16.00;99.90;;;;;;20451739;29;20322;-77
2021/03/14 14:46:19;;;;;;;0.20;0.10;;;16.00;99.90;;;;;;20431547;29;20209;-77
2021/03/14 14:56:23;;;;;;;5.60;0.67;;;15.80;99.90;;;;;;20431525;29;20606;-76
2021/03/14 15:06:39;;;;;;;0.30;0.27;;;16.40;99.90;;;;;;20405767;28;20321;-76
2021/03/14 15:16:43;;;;;;;6.80;0.47;;;17.10;99.90;;;;;;20391038;29;20229;-76
2021/03/14 15:26:47;;;;;;;0.20;0.20;;;16.50;99.90;;;;;;20449930;29;20564;-75
2021/03/14 15:37:05;;;;;;;0.67;0.50;;;16.40;99.90;;;;;;20483937;28;20363;-76
2021/03/14 15:47:08;;;;;;;0.20;0.20;;;15.70;99.90;;;;;;20496881;28;20703;-75
2021/03/14 15:57:13;;;;;;;0.20;0.10;;;15.40;99.90;;;;;;20392564;28;20692;-74
2021/03/14 16:07:34;;;;;;;0.67;0.40;;;15.00;99.90;;;;;;20399516;29;20699;-72
2021/03/14 16:17:39;;;;;;;1.03;0.57;;;15.00;99.90;;;;;;20390100;29;20221;-74
2021/03/14 16:27:41;;;;;;;0.60;0.40;;;14.80;99.90;;;;;;20456485;29;20208;-73
2021/03/14 16:37:52;;;;;;;0.93;0.90;;;14.80;99.90;;;;;;20453522;29;20696;-74
2021/03/14 16:47:55;;;;;;;1.73;1.63;;;14.70;99.90;;;;;;20457744;29;20205;-74
2021/03/14 16:57:58;;;;;;;2.90;2.07;;;14.60;99.90;;;;;;20432405;28;20232;-73
2021/03/14 17:08:17;;;;;;;2.37;2.10;;;14.60;99.90;;;;;;20386226;29;20248;-72
2021/03/14 17:18:24;;;;;;;0.40;0.40;;;14.50;99.90;;;;;;20402631;28;20392;-73
2021/03/14 17:28:27;;;;;;;3.70;1.50;;;14.40;99.90;;;;;;20379958;29;20206;-72
2021/03/14 17:38:36;;;;;;;2.10;1.90;;;14.50;99.90;;;;;;20397326;29;20229;-71
2021/03/14 17:48:39;;;;;;;1.30;1.20;;;14.30;99.90;;;;;;20400222;29;20189;-71
2021/03/14 17:58:43;;;;;;;0.40;0.20;;;14.40;99.90;;;;;;20464865;28;20311;-74
2021/03/14 18:08:56;;;;;;;0.43;0.30;;;14.40;99.90;;;;;;20436838;28;20247;-72
2021/03/14 18:19:00;;;;;;;2.63;2.27;;;14.40;99.90;;;;;;20446748;28;20224;-71
2021/03/14 18:29:06;;;;;;;0.20;0.10;;;14.30;99.90;;;;;;20449279;28;20268;-72
2021/03/14 18:39:18;;;;;;;0.57;0.57;;;14.10;99.90;;;;;;20446530;28;20616;-74
2021/03/14 18:49:22;;;;;;;0.50;0.40;;;14.00;99.90;;;;;;20444450;28;20205;-73
2021/03/14 18:59:26;;;;;;;0.20;0.10;;;13.90;99.90;;;;;;20444469;28;20596;-74
2021/03/14 19:09:41;;;;;;;4.10;1.00;;;13.90;99.90;;;;;;20433828;29;20231;-74
2021/03/14 19:19:44;;;;;;;3.20;2.73;;;13.90;99.90;;;;;;20381288;29;20217;-72
2021/03/14 19:29:47;;;;;;;0.30;0.30;;;14.00;99.90;;;;;;20370112;29;20349;-74
2021/03/14 19:40:07;;;;;;;0.30;0.23;;;14.00;99.90;;;;;;20425121;29;20229;-73
2021/03/14 19:50:11;;;;;;;6.67;0.80;;;13.60;99.90;;;;;;20446072;28;20228;-73
2021/03/14 20:00:16;;;;;;;0.50;0.50;;;13.80;99.90;;;;;;20439324;28;20232;-73
2021/03/14 20:10:27;;;;;;;0.20;0.10;;;13.60;99.90;;;;;;20457665;28;20197;-76
2021/03/14 20:20:31;;;;;;;0.30;0.10;;;13.70;99.90;;;;;;20474620;28;20269;-73
2021/03/14 20:30:35;;;;;;;0.20;0.10;;;13.50;99.90;;;;;;20454117;29;20197;-74
2021/03/14 20:40:52;;;;;;;0.23;0.07;;;13.60;99.90;;;;;;20463980;28;20288;-74
2021/03/14 20:50:55;;;;;;;0.20;0.13;;;13.40;99.90;;;;;;20456071;28;20197;-74
2021/03/14 21:00:58;;;;;;;0.20;0.10;;;13.40;99.90;;;;;;20454419;28;20730;-74
2021/03/14 21:11:12;;;;;;;0.40;0.40;;;13.40;99.90;;;;;;20412690;28;20600;-73
2021/03/14 21:21:16;;;;;;;13.30;1.13;;;13.40;99.90;;;;;;20448713;28;20228;-75
2021/03/14 21:31:18;;;;;;;0.53;0.37;;;13.20;99.90;;;;;;20461576;28;20193;-77
2021/03/14 21:41:37;;;;;;;0.87;0.77;;;13.00;99.90;;;;;;20456721;29;20229;-75
2021/03/14 21:51:40;;;;;;;0.33;0.33;;;13.00;99.90;;;;;;20461273;28;20190;-74
2021/03/14 22:01:43;;;;;;;0.20;0.20;;;13.00;99.90;;;;;;20412058;28;20240;-74
2021/03/14 22:11:58;;;;;;;0.20;0.20;;;12.80;99.90;;;;;;20413211;29;21125;-74
2021/03/14 22:22:01;;;;;;;0.20;0.10;;;12.70;99.90;;;;;;20408651;28;20225;-74
2021/03/14 22:32:05;;;;;;;0.20;0.10;;;12.50;99.90;;;;;;20410787;29;20220;-73
2021/03/14 22:42:24;;;;;;;0.20;0.20;;;12.50;99.90;;;;;;20435052;28;20412;-74
2021/03/14 22:52:27;;;;;;;0.67;0.53;;;12.40;99.90;;;;;;20408054;28;20197;-75
2021/03/14 23:02:30;;;;;;;0.30;0.30;;;11.90;99.90;;;;;;20438888;29;20236;-75
2021/03/14 23:12:47;;;;;;;0.20;0.10;;;12.10;99.90;;;;;;20451318;28;20201;-73
2021/03/14 23:22:52;;;;;;;0.40;0.40;;;12.40;99.90;;;;;;20400335;28;20248;-74
2021/03/14 23:32:55;;;;;;;0.20;0.20;;;12.30;99.90;;;;;;20379361;29;20264;-75
2021/03/14 23:43:11;;;;;;;0.20;0.20;;;12.20;99.90;;;;;;20386537;29;20892;-73
2021/03/14 23:53:15;;;;;;;1.33;0.67;;;12.00;99.90;;;;;;20390141;29;20291;-73
